sensor_id;sensor_type;location;lat;lon;timestamp;P1;durP1;ratioP1;P2;durP2;ratioP2
70970;SDS011;58632;51.718;19.446;2023-07-09T00:01:05;15.80;;;10.30;;
70970;SDS011;58632;51.718;19.446;2023-07-09T00:03:50;21.80;;;10.90;;
70970;SDS011;58632;51.718;19.446;2023-07-09T00:06:16;21.40;;;10.30;;
70970;SDS011;58632;51.718;19.446;2023-07-09T00:08:43;21.00;;;10.50;;
70970;SDS011;58632;51.718;19.446;2023-07-09T00:11:30;13.50;;;9.00;;
70970;SDS011;58632;51.718;19.446;2023-07-09T00:13:56;13.70;;;9.20;;
70970;SDS011;58632;51.718;19.446;2023-07-09T00:16:23;15.70;;;9.70;;
70970;SDS011;58632;51.718;19.446;2023-07-09T00:18:50;16.40;;;9.90;;
70970;SDS011;58632;51.718;19.446;2023-07-09T00:21:17;14.70;;;9.40;;
70970;SDS011;58632;51.718;19.446;2023-07-09T00:23:45;12.90;;;8.80;;
70970;SDS011;58632;51.718;19.446;2023-07-09T00:26:14;15.30;;;9.00;;
70970;SDS011;58632;51.718;19.446;2023-07-09T00:28:40;14.20;;;9.20;;
70970;SDS011;58632;51.718;19.446;2023-07-09T00:31:14;14.00;;;9.10;;
70970;SDS011;58632;51.718;19.446;2023-07-09T00:33:41;12.90;;;9.00;;
70970;SDS011;58632;51.718;19.446;2023-07-09T00:36:13;13.90;;;8.90;;
70970;SDS011;58632;51.718;19.446;2023-07-09T00:38:50;12.00;;;8.60;;
70970;SDS011;58632;51.718;19.446;2023-07-09T00:41:18;13.80;;;8.80;;
70970;SDS011;58632;51.718;19.446;2023-07-09T00:43:46;14.10;;;9.30;;
70970;SDS011;58632;51.718;19.446;2023-07-09T00:48:48;13.60;;;9.20;;
70970;SDS011;58632;51.718;19.446;2023-07-09T00:51:19;17.40;;;9.80;;
70970;SDS011;58632;51.718;19.446;2023-07-09T00:53:47;16.10;;;8.80;;
70970;SDS011;58632;51.718;19.446;2023-07-09T00:56:17;24.90;;;9.90;;
70970;SDS011;58632;51.718;19.446;2023-07-09T00:58:54;15.30;;;9.00;;
70970;SDS011;58632;51.718;19.446;2023-07-09T01:01:21;17.70;;;9.30;;
70970;SDS011;58632;51.718;19.446;2023-07-09T01:06:19;18.60;;;9.40;;
70970;SDS011;58632;51.718;19.446;2023-07-09T01:08:55;14.40;;;9.50;;
70970;SDS011;58632;51.718;19.446;2023-07-09T01:11:21;15.30;;;9.70;;
70970;SDS011;58632;51.718;19.446;2023-07-09T01:13:51;15.10;;;9.00;;
70970;SDS011;58632;51.718;19.446;2023-07-09T01:16:19;12.10;;;8.70;;
70970;SDS011;58632;51.718;19.446;2023-07-09T01:18:49;12.60;;;8.70;;
70970;SDS011;58632;51.718;19.446;2023-07-09T01:21:15;12.90;;;9.00;;
70970;SDS011;58632;51.718;19.446;2023-07-09T01:23:45;14.10;;;9.20;;
70970;SDS011;58632;51.718;19.446;2023-07-09T01:26:13;12.50;;;9.20;;
70970;SDS011;58632;51.718;19.446;2023-07-09T01:28:40;13.10;;;9.50;;
70970;SDS011;58632;51.718;19.446;2023-07-09T01:31:12;11.80;;;9.30;;
70970;SDS011;58632;51.718;19.446;2023-07-09T01:33:40;12.40;;;8.90;;
70970;SDS011;58632;51.718;19.446;2023-07-09T01:36:10;13.80;;;9.60;;
70970;SDS011;58632;51.718;19.446;2023-07-09T01:38:39;13.40;;;9.00;;
70970;SDS011;58632;51.718;19.446;2023-07-09T01:41:05;12.00;;;9.20;;
70970;SDS011;58632;51.718;19.446;2023-07-09T01:43:31;11.90;;;9.40;;
70970;SDS011;58632;51.718;19.446;2023-07-09T01:45:58;17.60;;;10.00;;
70970;SDS011;58632;51.718;19.446;2023-07-09T01:48:25;12.70;;;9.90;;
70970;SDS011;58632;51.718;19.446;2023-07-09T01:50:51;14.50;;;10.00;;
70970;SDS011;58632;51.718;19.446;2023-07-09T01:53:19;12.90;;;9.50;;
70970;SDS011;58632;51.718;19.446;2023-07-09T01:55:49;12.80;;;9.50;;
70970;SDS011;58632;51.718;19.446;2023-07-09T01:58:15;13.00;;;9.30;;
70970;SDS011;58632;51.718;19.446;2023-07-09T02:00:41;12.60;;;9.20;;
70970;SDS011;58632;51.718;19.446;2023-07-09T02:03:07;14.90;;;9.40;;
70970;SDS011;58632;51.718;19.446;2023-07-09T02:05:34;14.30;;;9.90;;
70970;SDS011;58632;51.718;19.446;2023-07-09T02:08:00;13.70;;;9.70;;
70970;SDS011;58632;51.718;19.446;2023-07-09T02:10:26;13.10;;;9.90;;
70970;SDS011;58632;51.718;19.446;2023-07-09T02:12:51;15.60;;;9.80;;
70970;SDS011;58632;51.718;19.446;2023-07-09T02:15:17;16.70;;;10.30;;
70970;SDS011;58632;51.718;19.446;2023-07-09T02:17:43;11.80;;;9.50;;
70970;SDS011;58632;51.718;19.446;2023-07-09T02:20:09;13.90;;;10.20;;
70970;SDS011;58632;51.718;19.446;2023-07-09T02:22:36;12.00;;;9.60;;
70970;SDS011;58632;51.718;19.446;2023-07-09T02:25:03;14.20;;;10.60;;
70970;SDS011;58632;51.718;19.446;2023-07-09T02:27:34;14.30;;;10.40;;
70970;SDS011;58632;51.718;19.446;2023-07-09T02:30:00;14.10;;;9.70;;
70970;SDS011;58632;51.718;19.446;2023-07-09T02:32:26;13.80;;;9.60;;
70970;SDS011;58632;51.718;19.446;2023-07-09T02:34:52;10.70;;;9.20;;
70970;SDS011;58632;51.718;19.446;2023-07-09T02:37:19;12.00;;;8.40;;
70970;SDS011;58632;51.718;19.446;2023-07-09T02:39:46;10.10;;;8.50;;
70970;SDS011;58632;51.718;19.446;2023-07-09T02:42:13;13.40;;;8.80;;
70970;SDS011;58632;51.718;19.446;2023-07-09T02:44:40;11.50;;;9.00;;
70970;SDS011;58632;51.718;19.446;2023-07-09T02:47:07;11.40;;;8.90;;
70970;SDS011;58632;51.718;19.446;2023-07-09T02:49:33;16.10;;;9.00;;
70970;SDS011;58632;51.718;19.446;2023-07-09T02:51:59;11.80;;;8.10;;
70970;SDS011;58632;51.718;19.446;2023-07-09T02:54:24;9.60;;;7.90;;
70970;SDS011;58632;51.718;19.446;2023-07-09T02:56:50;10.70;;;7.60;;
70970;SDS011;58632;51.718;19.446;2023-07-09T02:59:16;11.70;;;7.60;;
70970;SDS011;58632;51.718;19.446;2023-07-09T03:01:42;10.40;;;7.20;;
70970;SDS011;58632;51.718;19.446;2023-07-09T03:04:08;12.00;;;7.60;;
70970;SDS011;58632;51.718;19.446;2023-07-09T03:06:35;14.30;;;7.90;;
70970;SDS011;58632;51.718;19.446;2023-07-09T03:09:01;11.20;;;7.80;;
70970;SDS011;58632;51.718;19.446;2023-07-09T03:11:29;13.10;;;7.40;;
70970;SDS011;58632;51.718;19.446;2023-07-09T03:13:56;8.70;;;6.70;;
70970;SDS011;58632;51.718;19.446;2023-07-09T03:16:23;9.20;;;7.20;;
70970;SDS011;58632;51.718;19.446;2023-07-09T03:18:50;8.70;;;6.90;;
70970;SDS011;58632;51.718;19.446;2023-07-09T03:21:16;9.50;;;6.80;;
70970;SDS011;58632;51.718;19.446;2023-07-09T03:23:42;11.20;;;7.10;;
70970;SDS011;58632;51.718;19.446;2023-07-09T03:26:07;8.50;;;6.70;;
70970;SDS011;58632;51.718;19.446;2023-07-09T03:28:33;9.00;;;6.80;;
70970;SDS011;58632;51.718;19.446;2023-07-09T03:30:58;10.50;;;6.10;;
70970;SDS011;58632;51.718;19.446;2023-07-09T03:33:24;10.10;;;6.40;;
70970;SDS011;58632;51.718;19.446;2023-07-09T03:35:52;9.70;;;6.30;;
70970;SDS011;58632;51.718;19.446;2023-07-09T03:38:21;11.10;;;6.40;;
70970;SDS011;58632;51.718;19.446;2023-07-09T03:40:49;9.20;;;6.30;;
70970;SDS011;58632;51.718;19.446;2023-07-09T03:43:16;9.30;;;6.40;;
70970;SDS011;58632;51.718;19.446;2023-07-09T03:45:43;8.30;;;6.40;;
70970;SDS011;58632;51.718;19.446;2023-07-09T03:48:10;11.30;;;6.80;;
70970;SDS011;58632;51.718;19.446;2023-07-09T03:50:35;8.70;;;6.30;;
70970;SDS011;58632;51.718;19.446;2023-07-09T03:53:01;8.60;;;6.20;;
70970;SDS011;58632;51.718;19.446;2023-07-09T03:55:27;8.90;;;7.00;;
70970;SDS011;58632;51.718;19.446;2023-07-09T03:57:53;8.90;;;6.80;;
70970;SDS011;58632;51.718;19.446;2023-07-09T04:00:19;9.60;;;5.70;;
70970;SDS011;58632;51.718;19.446;2023-07-09T04:02:45;11.10;;;6.00;;
70970;SDS011;58632;51.718;19.446;2023-07-09T04:05:12;10.30;;;6.30;;
70970;SDS011;58632;51.718;19.446;2023-07-09T04:07:38;7.50;;;5.40;;
70970;SDS011;58632;51.718;19.446;2023-07-09T04:10:04;7.30;;;5.60;;
70970;SDS011;58632;51.718;19.446;2023-07-09T04:12:31;11.50;;;6.20;;
70970;SDS011;58632;51.718;19.446;2023-07-09T04:14:56;12.10;;;6.20;;
70970;SDS011;58632;51.718;19.446;2023-07-09T04:17:22;12.10;;;5.70;;
70970;SDS011;58632;51.718;19.446;2023-07-09T04:19:48;8.80;;;5.70;;
70970;SDS011;58632;51.718;19.446;2023-07-09T04:22:15;9.00;;;5.60;;
70970;SDS011;58632;51.718;19.446;2023-07-09T04:24:41;7.80;;;4.60;;
70970;SDS011;58632;51.718;19.446;2023-07-09T04:27:07;7.70;;;4.40;;
70970;SDS011;58632;51.718;19.446;2023-07-09T04:29:33;6.10;;;4.20;;
70970;SDS011;58632;51.718;19.446;2023-07-09T04:32:00;6.00;;;4.00;;
70970;SDS011;58632;51.718;19.446;2023-07-09T04:34:29;5.40;;;3.80;;
70970;SDS011;58632;51.718;19.446;2023-07-09T04:36:55;7.20;;;3.40;;
70970;SDS011;58632;51.718;19.446;2023-07-09T04:39:21;7.90;;;3.40;;
70970;SDS011;58632;51.718;19.446;2023-07-09T04:41:48;5.20;;;3.30;;
70970;SDS011;58632;51.718;19.446;2023-07-09T04:44:14;6.30;;;3.10;;
70970;SDS011;58632;51.718;19.446;2023-07-09T04:46:39;9.50;;;3.30;;
70970;SDS011;58632;51.718;19.446;2023-07-09T04:51:31;6.10;;;3.40;;
70970;SDS011;58632;51.718;19.446;2023-07-09T04:53:57;6.40;;;3.30;;
70970;SDS011;58632;51.718;19.446;2023-07-09T04:56:22;6.10;;;3.50;;
70970;SDS011;58632;51.718;19.446;2023-07-09T04:58:48;6.10;;;3.10;;
70970;SDS011;58632;51.718;19.446;2023-07-09T05:03:39;6.30;;;3.10;;
70970;SDS011;58632;51.718;19.446;2023-07-09T05:06:05;5.80;;;3.20;;
70970;SDS011;58632;51.718;19.446;2023-07-09T05:10:57;4.60;;;2.90;;
70970;SDS011;58632;51.718;19.446;2023-07-09T05:13:23;5.00;;;2.70;;
70970;SDS011;58632;51.718;19.446;2023-07-09T05:15:49;4.20;;;2.90;;
70970;SDS011;58632;51.718;19.446;2023-07-09T05:18:16;4.00;;;2.90;;
70970;SDS011;58632;51.718;19.446;2023-07-09T05:20:43;6.30;;;3.10;;
70970;SDS011;58632;51.718;19.446;2023-07-09T05:23:09;4.60;;;3.00;;
70970;SDS011;58632;51.718;19.446;2023-07-09T05:25:35;3.40;;;2.60;;
70970;SDS011;58632;51.718;19.446;2023-07-09T05:28:02;7.30;;;2.80;;
70970;SDS011;58632;51.718;19.446;2023-07-09T05:30:28;5.70;;;2.80;;
70970;SDS011;58632;51.718;19.446;2023-07-09T05:32:53;6.60;;;2.90;;
70970;SDS011;58632;51.718;19.446;2023-07-09T05:35:22;8.50;;;3.00;;
70970;SDS011;58632;51.718;19.446;2023-07-09T05:37:48;5.50;;;2.70;;
70970;SDS011;58632;51.718;19.446;2023-07-09T05:40:14;6.00;;;2.60;;
70970;SDS011;58632;51.718;19.446;2023-07-09T05:42:40;5.00;;;2.80;;
70970;SDS011;58632;51.718;19.446;2023-07-09T05:45:06;4.60;;;2.80;;
70970;SDS011;58632;51.718;19.446;2023-07-09T05:47:32;7.40;;;2.80;;
70970;SDS011;58632;51.718;19.446;2023-07-09T05:49:57;5.00;;;2.90;;
70970;SDS011;58632;51.718;19.446;2023-07-09T05:52:23;4.00;;;2.50;;
70970;SDS011;58632;51.718;19.446;2023-07-09T05:54:49;5.40;;;2.40;;
70970;SDS011;58632;51.718;19.446;2023-07-09T05:57:16;4.60;;;2.80;;
70970;SDS011;58632;51.718;19.446;2023-07-09T05:59:42;3.40;;;2.50;;
70970;SDS011;58632;51.718;19.446;2023-07-09T06:02:10;5.60;;;2.90;;
70970;SDS011;58632;51.718;19.446;2023-07-09T06:04:36;3.60;;;2.50;;
70970;SDS011;58632;51.718;19.446;2023-07-09T06:07:02;4.00;;;2.70;;
70970;SDS011;58632;51.718;19.446;2023-07-09T06:09:29;4.50;;;2.40;;
70970;SDS011;58632;51.718;19.446;2023-07-09T06:11:55;6.20;;;2.70;;
70970;SDS011;58632;51.718;19.446;2023-07-09T06:14:21;5.50;;;2.40;;
70970;SDS011;58632;51.718;19.446;2023-07-09T06:16:47;6.40;;;2.90;;
70970;SDS011;58632;51.718;19.446;2023-07-09T06:19:12;5.10;;;2.60;;
70970;SDS011;58632;51.718;19.446;2023-07-09T06:21:40;4.00;;;2.20;;
70970;SDS011;58632;51.718;19.446;2023-07-09T06:24:06;4.50;;;2.60;;
70970;SDS011;58632;51.718;19.446;2023-07-09T06:26:34;4.10;;;2.60;;
70970;SDS011;58632;51.718;19.446;2023-07-09T06:29:00;5.30;;;2.80;;
70970;SDS011;58632;51.718;19.446;2023-07-09T06:31:26;5.40;;;2.80;;
70970;SDS011;58632;51.718;19.446;2023-07-09T06:33:51;3.90;;;2.70;;
70970;SDS011;58632;51.718;19.446;2023-07-09T06:36:18;5.10;;;2.70;;
70970;SDS011;58632;51.718;19.446;2023-07-09T06:38:44;4.90;;;2.80;;
70970;SDS011;58632;51.718;19.446;2023-07-09T06:41:11;4.70;;;2.40;;
70970;SDS011;58632;51.718;19.446;2023-07-09T06:43:39;5.40;;;2.60;;
70970;SDS011;58632;51.718;19.446;2023-07-09T06:46:06;5.00;;;2.60;;
70970;SDS011;58632;51.718;19.446;2023-07-09T06:48:34;4.60;;;2.70;;
70970;SDS011;58632;51.718;19.446;2023-07-09T06:51:00;5.20;;;2.70;;
70970;SDS011;58632;51.718;19.446;2023-07-09T06:53:26;4.60;;;2.50;;
70970;SDS011;58632;51.718;19.446;2023-07-09T06:55:53;5.20;;;2.70;;
70970;SDS011;58632;51.718;19.446;2023-07-09T06:58:20;3.80;;;2.80;;
70970;SDS011;58632;51.718;19.446;2023-07-09T07:00:50;5.30;;;2.70;;
70970;SDS011;58632;51.718;19.446;2023-07-09T07:03:19;5.00;;;2.70;;
70970;SDS011;58632;51.718;19.446;2023-07-09T07:05:46;4.80;;;2.70;;
70970;SDS011;58632;51.718;19.446;2023-07-09T07:08:14;4.90;;;2.70;;
70970;SDS011;58632;51.718;19.446;2023-07-09T07:10:41;6.10;;;2.70;;
70970;SDS011;58632;51.718;19.446;2023-07-09T07:13:07;4.10;;;2.80;;
70970;SDS011;58632;51.718;19.446;2023-07-09T07:17:58;4.50;;;2.70;;
70970;SDS011;58632;51.718;19.446;2023-07-09T07:22:49;5.80;;;2.70;;
70970;SDS011;58632;51.718;19.446;2023-07-09T07:25:15;6.40;;;2.70;;
70970;SDS011;58632;51.718;19.446;2023-07-09T07:27:41;4.90;;;2.60;;
70970;SDS011;58632;51.718;19.446;2023-07-09T07:30:07;3.80;;;2.70;;
70970;SDS011;58632;51.718;19.446;2023-07-09T07:32:34;4.90;;;2.90;;
70970;SDS011;58632;51.718;19.446;2023-07-09T07:35:01;5.60;;;2.60;;
70970;SDS011;58632;51.718;19.446;2023-07-09T07:37:27;6.70;;;3.00;;
70970;SDS011;58632;51.718;19.446;2023-07-09T07:39:52;5.90;;;2.80;;
70970;SDS011;58632;51.718;19.446;2023-07-09T07:44:44;4.90;;;2.60;;
70970;SDS011;58632;51.718;19.446;2023-07-09T07:47:10;5.10;;;2.50;;
70970;SDS011;58632;51.718;19.446;2023-07-09T07:49:37;6.20;;;2.80;;
70970;SDS011;58632;51.718;19.446;2023-07-09T07:52:03;6.60;;;2.80;;
70970;SDS011;58632;51.718;19.446;2023-07-09T07:54:29;5.00;;;2.60;;
70970;SDS011;58632;51.718;19.446;2023-07-09T07:56:57;4.30;;;2.60;;
70970;SDS011;58632;51.718;19.446;2023-07-09T07:59:23;6.00;;;2.70;;
70970;SDS011;58632;51.718;19.446;2023-07-09T08:01:49;4.30;;;2.70;;
70970;SDS011;58632;51.718;19.446;2023-07-09T08:06:40;5.30;;;2.70;;
70970;SDS011;58632;51.718;19.446;2023-07-09T08:09:05;3.60;;;2.60;;
70970;SDS011;58632;51.718;19.446;2023-07-09T08:13:57;6.30;;;2.80;;
70970;SDS011;58632;51.718;19.446;2023-07-09T08:18:49;5.90;;;2.40;;
70970;SDS011;58632;51.718;19.446;2023-07-09T08:21:17;4.50;;;2.60;;
70970;SDS011;58632;51.718;19.446;2023-07-09T08:23:44;4.50;;;2.60;;
70970;SDS011;58632;51.718;19.446;2023-07-09T08:26:10;5.30;;;2.80;;
70970;SDS011;58632;51.718;19.446;2023-07-09T08:31:02;4.40;;;2.50;;
70970;SDS011;58632;51.718;19.446;2023-07-09T08:35:53;4.80;;;2.50;;
70970;SDS011;58632;51.718;19.446;2023-07-09T08:38:19;4.10;;;2.50;;
70970;SDS011;58632;51.718;19.446;2023-07-09T08:40:58;5.80;;;2.80;;
70970;SDS011;58632;51.718;19.446;2023-07-09T08:43:47;4.60;;;2.80;;
70970;SDS011;58632;51.718;19.446;2023-07-09T08:46:24;5.10;;;2.60;;
70970;SDS011;58632;51.718;19.446;2023-07-09T08:48:59;6.30;;;2.60;;
70970;SDS011;58632;51.718;19.446;2023-07-09T08:51:45;5.40;;;2.30;;
70970;SDS011;58632;51.718;19.446;2023-07-09T08:54:46;3.90;;;2.30;;
70970;SDS011;58632;51.718;19.446;2023-07-09T08:57:40;4.00;;;2.50;;
70970;SDS011;58632;51.718;19.446;2023-07-09T09:00:02;5.40;;;2.40;;
70970;SDS011;58632;51.718;19.446;2023-07-09T09:02:50;5.10;;;2.20;;
70970;SDS011;58632;51.718;19.446;2023-07-09T09:05:21;10.10;;;2.40;;
70970;SDS011;58632;51.718;19.446;2023-07-09T09:07:51;5.30;;;2.40;;
70970;SDS011;58632;51.718;19.446;2023-07-09T09:10:48;5.50;;;2.40;;
70970;SDS011;58632;51.718;19.446;2023-07-09T09:13:23;5.70;;;2.20;;
70970;SDS011;58632;51.718;19.446;2023-07-09T09:15:52;5.80;;;2.30;;
70970;SDS011;58632;51.718;19.446;2023-07-09T09:18:23;6.40;;;2.20;;
70970;SDS011;58632;51.718;19.446;2023-07-09T09:23:46;4.30;;;2.10;;
70970;SDS011;58632;51.718;19.446;2023-07-09T09:26:27;6.30;;;2.30;;
70970;SDS011;58632;51.718;19.446;2023-07-09T09:28:56;6.40;;;2.70;;
70970;SDS011;58632;51.718;19.446;2023-07-09T09:31:23;5.20;;;2.50;;
70970;SDS011;58632;51.718;19.446;2023-07-09T09:33:51;4.70;;;2.30;;
70970;SDS011;58632;51.718;19.446;2023-07-09T09:36:21;4.20;;;2.40;;
70970;SDS011;58632;51.718;19.446;2023-07-09T09:38:49;5.40;;;2.40;;
70970;SDS011;58632;51.718;19.446;2023-07-09T09:41:20;3.10;;;1.80;;
70970;SDS011;58632;51.718;19.446;2023-07-09T09:43:48;3.00;;;2.00;;
70970;SDS011;58632;51.718;19.446;2023-07-09T09:46:20;4.80;;;2.40;;
70970;SDS011;58632;51.718;19.446;2023-07-09T09:48:48;4.60;;;2.40;;
70970;SDS011;58632;51.718;19.446;2023-07-09T09:51:16;4.50;;;2.00;;
70970;SDS011;58632;51.718;19.446;2023-07-09T09:53:56;3.80;;;2.20;;
70970;SDS011;58632;51.718;19.446;2023-07-09T09:56:28;5.70;;;2.30;;
70970;SDS011;58632;51.718;19.446;2023-07-09T09:59:01;5.00;;;1.90;;
70970;SDS011;58632;51.718;19.446;2023-07-09T10:01:35;3.90;;;2.10;;
70970;SDS011;58632;51.718;19.446;2023-07-09T10:04:03;5.20;;;2.10;;
70970;SDS011;58632;51.718;19.446;2023-07-09T10:20:07;5.00;;;2.40;;
70970;SDS011;58632;51.718;19.446;2023-07-09T10:22:50;3.20;;;2.00;;
70970;SDS011;58632;51.718;19.446;2023-07-09T10:25:32;5.80;;;2.40;;
70970;SDS011;58632;51.718;19.446;2023-07-09T10:28:20;3.50;;;2.20;;
70970;SDS011;58632;51.718;19.446;2023-07-09T10:33:57;4.70;;;2.30;;
70970;SDS011;58632;51.718;19.446;2023-07-09T10:36:54;3.20;;;2.40;;
70970;SDS011;58632;51.718;19.446;2023-07-09T10:39:37;6.90;;;2.30;;
70970;SDS011;58632;51.718;19.446;2023-07-09T10:42:06;3.10;;;2.10;;
70970;SDS011;58632;51.718;19.446;2023-07-09T10:44:41;3.10;;;2.10;;
70970;SDS011;58632;51.718;19.446;2023-07-09T10:47:15;5.60;;;2.40;;
70970;SDS011;58632;51.718;19.446;2023-07-09T10:49:50;3.80;;;2.20;;
70970;SDS011;58632;51.718;19.446;2023-07-09T11:00:23;4.60;;;2.10;;
70970;SDS011;58632;51.718;19.446;2023-07-09T11:03:02;4.40;;;2.10;;
70970;SDS011;58632;51.718;19.446;2023-07-09T11:05:30;3.20;;;2.10;;
70970;SDS011;58632;51.718;19.446;2023-07-09T11:08:02;3.10;;;2.10;;
70970;SDS011;58632;51.718;19.446;2023-07-09T11:10:32;5.60;;;2.40;;
70970;SDS011;58632;51.718;19.446;2023-07-09T11:13:12;3.60;;;2.20;;
70970;SDS011;58632;51.718;19.446;2023-07-09T11:15:44;4.40;;;2.30;;
70970;SDS011;58632;51.718;19.446;2023-07-09T11:18:32;4.40;;;2.40;;
70970;SDS011;58632;51.718;19.446;2023-07-09T11:21:06;4.90;;;2.20;;
70970;SDS011;58632;51.718;19.446;2023-07-09T11:24:00;4.40;;;2.10;;
70970;SDS011;58632;51.718;19.446;2023-07-09T11:26:35;4.70;;;2.40;;
70970;SDS011;58632;51.718;19.446;2023-07-09T11:31:43;5.80;;;2.60;;
70970;SDS011;58632;51.718;19.446;2023-07-09T11:36:46;4.20;;;2.40;;
70970;SDS011;58632;51.718;19.446;2023-07-09T11:39:22;5.10;;;3.50;;
70970;SDS011;58632;51.718;19.446;2023-07-09T11:41:56;5.60;;;3.30;;
70970;SDS011;58632;51.718;19.446;2023-07-09T11:44:24;6.40;;;4.30;;
70970;SDS011;58632;51.718;19.446;2023-07-09T11:50:21;6.10;;;2.30;;
70970;SDS011;58632;51.718;19.446;2023-07-09T11:52:39;5.80;;;2.30;;
70970;SDS011;58632;51.718;19.446;2023-07-09T11:57:55;3.60;;;2.30;;
70970;SDS011;58632;51.718;19.446;2023-07-09T12:00:22;4.10;;;2.30;;
70970;SDS011;58632;51.718;19.446;2023-07-09T12:02:49;14.60;;;2.40;;
70970;SDS011;58632;51.718;19.446;2023-07-09T12:05:19;4.30;;;2.30;;
70970;SDS011;58632;51.718;19.446;2023-07-09T12:07:47;3.40;;;2.40;;
70970;SDS011;58632;51.718;19.446;2023-07-09T12:10:17;4.00;;;2.40;;
70970;SDS011;58632;51.718;19.446;2023-07-09T12:12:45;3.70;;;2.50;;
70970;SDS011;58632;51.718;19.446;2023-07-09T12:15:22;4.00;;;2.40;;
70970;SDS011;58632;51.718;19.446;2023-07-09T12:17:53;4.30;;;2.20;;
70970;SDS011;58632;51.718;19.446;2023-07-09T12:20:23;2.70;;;2.00;;
70970;SDS011;58632;51.718;19.446;2023-07-09T12:22:49;6.10;;;2.30;;
70970;SDS011;58632;51.718;19.446;2023-07-09T12:25:24;3.50;;;1.90;;
70970;SDS011;58632;51.718;19.446;2023-07-09T12:27:52;3.80;;;2.00;;
70970;SDS011;58632;51.718;19.446;2023-07-09T12:30:18;2.80;;;1.90;;
70970;SDS011;58632;51.718;19.446;2023-07-09T12:32:44;3.00;;;1.90;;
70970;SDS011;58632;51.718;19.446;2023-07-09T12:35:12;7.00;;;2.20;;
70970;SDS011;58632;51.718;19.446;2023-07-09T12:37:40;2.90;;;1.90;;
70970;SDS011;58632;51.718;19.446;2023-07-09T12:40:15;3.40;;;2.00;;
70970;SDS011;58632;51.718;19.446;2023-07-09T12:42:47;2.90;;;1.80;;
70970;SDS011;58632;51.718;19.446;2023-07-09T12:45:14;5.10;;;2.10;;
70970;SDS011;58632;51.718;19.446;2023-07-09T12:47:41;3.80;;;1.90;;
70970;SDS011;58632;51.718;19.446;2023-07-09T12:55:39;3.00;;;1.60;;
70970;SDS011;58632;51.718;19.446;2023-07-09T12:58:16;3.60;;;1.70;;
70970;SDS011;58632;51.718;19.446;2023-07-09T13:00:55;3.70;;;1.70;;
70970;SDS011;58632;51.718;19.446;2023-07-09T13:03:24;5.10;;;1.90;;
70970;SDS011;58632;51.718;19.446;2023-07-09T13:06:01;4.70;;;1.60;;
70970;SDS011;58632;51.718;19.446;2023-07-09T13:08:32;4.20;;;2.00;;
70970;SDS011;58632;51.718;19.446;2023-07-09T13:11:13;3.50;;;1.80;;
70970;SDS011;58632;51.718;19.446;2023-07-09T13:13:40;3.60;;;1.90;;
70970;SDS011;58632;51.718;19.446;2023-07-09T13:16:06;3.10;;;1.90;;
70970;SDS011;58632;51.718;19.446;2023-07-09T13:23:28;2.70;;;1.50;;
70970;SDS011;58632;51.718;19.446;2023-07-09T13:25:57;3.30;;;1.60;;
70970;SDS011;58632;51.718;19.446;2023-07-09T13:31:07;3.80;;;1.60;;
70970;SDS011;58632;51.718;19.446;2023-07-09T13:33:37;2.00;;;1.40;;
70970;SDS011;58632;51.718;19.446;2023-07-09T13:36:03;2.20;;;1.60;;
70970;SDS011;58632;51.718;19.446;2023-07-09T13:38:29;2.40;;;1.50;;
70970;SDS011;58632;51.718;19.446;2023-07-09T13:43:28;2.30;;;1.50;;
70970;SDS011;58632;51.718;19.446;2023-07-09T13:45:56;2.20;;;1.60;;
70970;SDS011;58632;51.718;19.446;2023-07-09T13:48:23;3.70;;;1.50;;
70970;SDS011;58632;51.718;19.446;2023-07-09T13:50:51;2.00;;;1.40;;
70970;SDS011;58632;51.718;19.446;2023-07-09T13:53:23;5.40;;;1.60;;
70970;SDS011;58632;51.718;19.446;2023-07-09T13:55:51;4.30;;;1.60;;
70970;SDS011;58632;51.718;19.446;2023-07-09T13:58:24;2.50;;;1.80;;
70970;SDS011;58632;51.718;19.446;2023-07-09T14:00:54;2.20;;;1.30;;
70970;SDS011;58632;51.718;19.446;2023-07-09T14:03:25;3.90;;;1.50;;
70970;SDS011;58632;51.718;19.446;2023-07-09T14:05:53;4.30;;;1.60;;
70970;SDS011;58632;51.718;19.446;2023-07-09T14:08:20;3.30;;;1.30;;
70970;SDS011;58632;51.718;19.446;2023-07-09T14:10:47;1.80;;;1.20;;
70970;SDS011;58632;51.718;19.446;2023-07-09T14:13:16;2.20;;;1.50;;
70970;SDS011;58632;51.718;19.446;2023-07-09T14:15:44;1.90;;;1.20;;
70970;SDS011;58632;51.718;19.446;2023-07-09T14:18:17;3.20;;;1.40;;
70970;SDS011;58632;51.718;19.446;2023-07-09T14:20:45;1.60;;;1.30;;
70970;SDS011;58632;51.718;19.446;2023-07-09T14:25:37;2.20;;;1.30;;
70970;SDS011;58632;51.718;19.446;2023-07-09T14:28:04;2.20;;;1.30;;
70970;SDS011;58632;51.718;19.446;2023-07-09T14:30:41;2.40;;;1.70;;
70970;SDS011;58632;51.718;19.446;2023-07-09T14:33:18;3.70;;;1.20;;
70970;SDS011;58632;51.718;19.446;2023-07-09T14:35:45;3.40;;;1.30;;
70970;SDS011;58632;51.718;19.446;2023-07-09T14:38:15;3.30;;;1.50;;
70970;SDS011;58632;51.718;19.446;2023-07-09T14:40:52;2.90;;;1.30;;
70970;SDS011;58632;51.718;19.446;2023-07-09T14:43:21;1.90;;;1.30;;
70970;SDS011;58632;51.718;19.446;2023-07-09T14:45:47;1.50;;;1.00;;
70970;SDS011;58632;51.718;19.446;2023-07-09T14:48:15;3.60;;;1.10;;
70970;SDS011;58632;51.718;19.446;2023-07-09T14:50:42;1.70;;;1.20;;
70970;SDS011;58632;51.718;19.446;2023-07-09T14:53:15;2.00;;;1.30;;
70970;SDS011;58632;51.718;19.446;2023-07-09T14:55:45;1.90;;;1.10;;
70970;SDS011;58632;51.718;19.446;2023-07-09T14:58:12;1.50;;;1.10;;
70970;SDS011;58632;51.718;19.446;2023-07-09T15:00:40;1.80;;;1.00;;
70970;SDS011;58632;51.718;19.446;2023-07-09T15:03:07;2.10;;;1.30;;
70970;SDS011;58632;51.718;19.446;2023-07-09T15:05:34;2.40;;;1.20;;
70970;SDS011;58632;51.718;19.446;2023-07-09T15:10:27;2.60;;;1.00;;
70970;SDS011;58632;51.718;19.446;2023-07-09T15:12:52;2.90;;;1.00;;
70970;SDS011;58632;51.718;19.446;2023-07-09T15:15:28;2.00;;;1.00;;
70970;SDS011;58632;51.718;19.446;2023-07-09T15:17:56;1.60;;;1.10;;
70970;SDS011;58632;51.718;19.446;2023-07-09T15:20:25;1.50;;;1.10;;
70970;SDS011;58632;51.718;19.446;2023-07-09T15:22:53;1.40;;;1.00;;
70970;SDS011;58632;51.718;19.446;2023-07-09T15:25:22;3.50;;;1.00;;
70970;SDS011;58632;51.718;19.446;2023-07-09T15:27:53;6.30;;;2.40;;
70970;SDS011;58632;51.718;19.446;2023-07-09T15:30:27;1.70;;;1.00;;
70970;SDS011;58632;51.718;19.446;2023-07-09T15:32:59;1.50;;;1.10;;
70970;SDS011;58632;51.718;19.446;2023-07-09T15:35:26;3.60;;;1.20;;
70970;SDS011;58632;51.718;19.446;2023-07-09T15:37:58;3.10;;;1.10;;
70970;SDS011;58632;51.718;19.446;2023-07-09T15:40:25;1.90;;;1.00;;
70970;SDS011;58632;51.718;19.446;2023-07-09T15:42:58;2.30;;;1.40;;
70970;SDS011;58632;51.718;19.446;2023-07-09T15:45:28;1.50;;;1.00;;
70970;SDS011;58632;51.718;19.446;2023-07-09T15:47:53;4.90;;;1.30;;
70970;SDS011;58632;51.718;19.446;2023-07-09T15:50:20;2.80;;;1.10;;
70970;SDS011;58632;51.718;19.446;2023-07-09T15:52:48;1.10;;;0.90;;
70970;SDS011;58632;51.718;19.446;2023-07-09T15:55:23;2.30;;;1.20;;
70970;SDS011;58632;51.718;19.446;2023-07-09T15:57:51;1.40;;;1.10;;
70970;SDS011;58632;51.718;19.446;2023-07-09T16:00:23;1.60;;;0.90;;
70970;SDS011;58632;51.718;19.446;2023-07-09T16:02:52;3.80;;;1.30;;
70970;SDS011;58632;51.718;19.446;2023-07-09T16:05:25;2.40;;;1.30;;
70970;SDS011;58632;51.718;19.446;2023-07-09T16:07:53;2.70;;;1.20;;
70970;SDS011;58632;51.718;19.446;2023-07-09T16:10:20;1.80;;;1.20;;
70970;SDS011;58632;51.718;19.446;2023-07-09T16:12:47;2.50;;;1.30;;